Time;durP1;ratioP1;P1;durP2;ratioP2;P2;SDS_P1;SDS_P2;PMS_P1;PMS_P2;Temp;Humidity;BMP_temperature;BMP_pressure;BME280_temperature;BME280_humidity;BME280_pressure;Samples;Min_cycle;Max_cycle;Signal;HPM_P1;HPM_P2
2021/12/22 00:00:59;;;;;;;13.43;6.53;;;;;;;-9.15;98.85;91403.34;5071256;28;20108;-63
2021/12/22 00:03:25;;;;;;;17.05;7.97;;;;;;;-9.13;99.33;91396.25;5072964;28;20036;-62
2021/12/22 00:05:52;;;;;;;15.25;7.97;;;;;;;-9.25;100.00;91402.84;5072730;28;20120;-62
2021/12/22 00:08:18;;;;;;;11.13;5.75;;;;;;;-9.51;100.00;91388.66;5072098;28;20017;-63
2021/12/22 00:10:47;;;;;;;14.85;7.32;;;;;;;-9.45;100.00;91397.47;5071966;28;20138;-62
2021/12/22 00:13:13;;;;;;;13.50;6.10;;;;;;;-9.45;100.00;91398.25;5074775;28;20111;-62
2021/12/22 00:15:38;;;;;;;13.35;6.18;;;;;;;-9.48;100.00;91401.16;5074828;28;20112;-62
2021/12/22 00:18:04;;;;;;;8.77;5.45;;;;;;;-9.46;100.00;91404.38;5074862;28;20111;-62
2021/12/22 00:20:31;;;;;;;9.23;5.28;;;;;;;-9.45;99.93;91410.34;5074765;28;20544;-62
2021/12/22 00:22:56;;;;;;;9.10;4.85;;;;;;;-9.43;99.04;91411.75;5074622;28;20029;-62
2021/12/22 00:25:25;;;;;;;10.73;5.88;;;;;;;-9.42;98.58;91413.34;5074614;28;20455;-62
2021/12/22 00:27:52;;;;;;;10.50;4.80;;;;;;;-9.45;98.23;91412.91;5074657;28;20031;-62
2021/12/22 00:30:18;;;;;;;5.60;3.13;;;;;;;-9.41;97.47;91407.22;5074652;28;20121;-62
2021/12/22 00:32:50;;;;;;;7.32;5.20;;;;;;;-9.49;96.40;91409.06;5074557;28;20083;-62
2021/12/22 00:35:18;;;;;;;11.05;5.20;;;;;;;-9.56;96.84;91418.50;5074657;28;20040;-62
2021/12/22 00:37:44;;;;;;;15.70;6.72;;;;;;;-9.59;97.17;91417.06;5074139;28;20029;-62
2021/12/22 00:40:10;;;;;;;9.68;5.65;;;;;;;-9.60;97.45;91410.34;5074284;28;20061;-62
2021/12/22 00:42:36;;;;;;;11.07;5.55;;;;;;;-9.68;97.24;91415.56;5074241;28;20027;-62
2021/12/22 00:45:02;;;;;;;14.63;5.10;;;;;;;-9.66;98.04;91427.25;5074176;28;20129;-62
2021/12/22 00:47:29;;;;;;;9.43;5.78;;;;;;;-9.62;97.83;91412.28;5073979;28;20028;-62
2021/12/22 00:49:56;;;;;;;10.02;4.88;;;;;;;-9.61;97.81;91415.66;5073822;28;20052;-62
2021/12/22 00:52:22;;;;;;;12.68;6.10;;;;;;;-9.61;97.70;91419.03;5074097;28;20556;-62
2021/12/22 00:54:48;;;;;;;7.68;4.78;;;;;;;-9.52;97.78;91414.56;5073997;28;20087;-62
2021/12/22 00:57:16;;;;;;;14.93;6.88;;;;;;;-9.56;96.28;91403.84;5073706;28;20040;-62
2021/12/22 00:59:43;;;;;;;10.00;5.28;;;;;;;-9.59;95.54;91414.50;5074277;28;20024;-62
2021/12/22 01:02:10;;;;;;;19.15;7.25;;;;;;;-9.62;95.88;91412.28;5073904;28;20028;-62
2021/12/22 01:04:37;;;;;;;12.77;6.05;;;;;;;-9.61;96.41;91418.22;5073776;28;20060;-62
2021/12/22 01:07:03;;;;;;;10.40;4.82;;;;;;;-9.86;98.57;91410.75;5073744;28;20028;-62
2021/12/22 01:09:29;;;;;;;7.10;4.68;;;;;;;-9.94;98.76;91412.59;5073711;28;20501;-62
2021/12/22 01:11:55;;;;;;;9.00;4.80;;;;;;;-10.00;99.41;91407.19;5073733;28;20037;-62
2021/12/22 01:14:21;;;;;;;9.98;4.57;;;;;;;-10.03;99.27;91415.25;5073624;28;20028;-62
2021/12/22 01:16:50;;;;;;;8.82;4.78;;;;;;;-9.96;99.34;91420.47;5073480;28;20501;-63
2021/12/22 01:19:22;;;;;;;11.20;6.03;;;;;;;-9.98;98.35;91405.22;5073561;28;20086;-62
2021/12/22 01:21:55;;;;;;;9.38;5.30;;;;;;;-10.03;99.14;91409.31;5072889;28;20559;-62
2021/12/22 01:26:52;;;;;;;13.00;6.00;;;;;;;-10.04;100.00;91398.22;5073492;28;20024;-63
2021/12/22 01:29:18;;;;;;;28.25;11.20;;;;;;;-10.07;100.00;91396.00;5073442;28;20017;-62
2021/12/22 01:31:44;;;;;;;19.95;7.72;;;;;;;-10.35;100.00;91389.84;5073368;28;20059;-62
2021/12/22 01:34:10;;;;;;;54.70;16.48;;;;;;;-10.42;100.00;91399.22;5073598;28;20056;-62
2021/12/22 01:36:37;;;;;;;10.23;5.35;;;;;;;-10.50;100.00;91391.56;5073148;28;20536;-63
2021/12/22 01:39:04;;;;;;;13.50;5.43;;;;;;;-10.42;100.00;91392.28;5073187;28;20047;-62
2021/12/22 01:41:30;;;;;;;12.98;5.80;;;;;;;-10.34;100.00;91387.09;5073119;28;20032;-62
2021/12/22 01:43:56;;;;;;;7.50;4.85;;;;;;;-10.26;100.00;91393.94;5073081;28;20028;-63
2021/12/22 01:49:09;;;;;;;6.82;3.95;;;;;;;-10.12;100.00;91387.19;5073085;28;20406;-62
2021/12/22 01:49:40;;;;;;;9.10;4.28;;;;;;;-9.97;99.78;91377.72;5072918;28;20521;-62
2021/12/22 01:52:06;;;;;;;10.77;6.30;;;;;;;-9.98;99.48;91376.91;5072975;28;20055;-62
2021/12/22 01:54:50;;;;;;;7.63;4.13;;;;;;;-9.86;100.00;91373.91;5073230;28;20025;-62
2021/12/22 01:57:17;;;;;;;6.25;4.45;;;;;;;-9.73;100.00;91368.97;5072623;28;20391;-62
2021/12/22 01:59:45;;;;;;;4.45;3.45;;;;;;;-9.68;100.00;91367.44;5073066;28;20029;-62
2021/12/22 02:02:12;;;;;;;8.32;4.07;;;;;;;-9.62;97.31;91360.78;5203922;23;20049;-64
2021/12/22 02:04:40;;;;;;;8.25;3.97;;;;;;;-9.69;95.14;91368.41;5052755;28;20120;-64
2021/12/22 02:07:06;;;;;;;7.55;3.78;;;;;;;-9.79;94.34;91354.19;5052519;28;20115;-64
2021/12/22 02:09:52;;;;;;;14.73;6.25;;;;;;;-9.87;93.96;91362.81;5052346;28;20403;-64
2021/12/22 02:12:18;;;;;;;11.23;3.28;;;;;;;-9.87;94.74;91354.31;5051246;28;20048;-64
2021/12/22 02:14:45;;;;;;;5.45;3.78;;;;;;;-9.86;94.63;91355.91;5052396;28;20036;-64
2021/12/22 02:17:12;;;;;;;11.48;5.00;;;;;;;-9.86;94.19;91361.06;5052368;28;20032;-64
2021/12/22 02:19:43;;;;;;;5.63;3.55;;;;;;;-9.82;93.92;91346.84;5052386;28;20028;-64
2021/12/22 02:22:11;;;;;;;14.57;5.95;;;;;;;-9.83;93.78;91358.91;5052191;28;20063;-64
2021/12/22 02:24:37;;;;;;;12.88;6.40;;;;;;;-10.10;94.22;91332.00;5052208;28;20024;-64
2021/12/22 02:27:09;;;;;;;16.02;6.45;;;;;;;-9.99;95.04;91354.72;5052133;28;20029;-64
2021/12/22 02:29:36;;;;;;;9.20;4.83;;;;;;;-10.02;96.23;91354.28;5052071;28;20423;-64
2021/12/22 02:32:12;;;;;;;13.52;5.38;;;;;;;-10.05;97.92;91354.66;5052034;28;20029;-64
2021/12/22 02:34:42;;;;;;;14.57;5.63;;;;;;;-10.10;98.40;91360.31;5051919;28;20099;-64
2021/12/22 02:37:12;;;;;;;10.73;5.50;;;;;;;-10.08;99.58;91362.72;5051866;28;20037;-64
2021/12/22 02:39:48;;;;;;;10.10;5.20;;;;;;;-10.16;99.68;91357.66;5052060;28;20107;-64
2021/12/22 02:42:14;;;;;;;7.10;3.70;;;;;;;-10.20;100.00;91359.78;5051836;28;20032;-64
2021/12/22 02:44:40;;;;;;;7.88;4.68;;;;;;;-10.22;100.00;91356.63;5051828;28;20031;-64
2021/12/22 02:47:24;;;;;;;3.97;2.75;;;;;;;-10.18;98.76;91351.88;5051729;28;20130;-64
2021/12/22 02:49:50;;;;;;;6.25;3.95;;;;;;;-10.08;97.27;91366.09;5051845;28;20505;-64
2021/12/22 02:52:18;;;;;;;9.82;4.30;;;;;;;-10.03;96.02;91358.66;5051820;28;20059;-64
2021/12/22 02:54:51;;;;;;;13.07;5.20;;;;;;;-9.99;95.33;91354.72;5051633;28;20402;-64
2021/12/22 02:57:29;;;;;;;11.38;5.22;;;;;;;-10.00;95.36;91358.28;5051542;28;20029;-64
2021/12/22 03:03:26;;;;;;;14.65;4.25;;;;;;;-10.01;94.70;91359.25;5051435;28;20630;-64
2021/12/22 03:05:33;;;;;;;3.80;2.97;;;;;;;-10.05;94.87;91359.81;5048324;28;20084;-64
2021/12/22 03:07:59;;;;;;;5.65;3.78;;;;;;;-10.14;94.87;91351.34;5056063;28;20041;-64
2021/12/22 03:10:24;;;;;;;10.68;5.50;;;;;;;-10.21;95.34;91360.00;5052638;28;20526;-64
2021/12/22 03:12:53;;;;;;;9.02;5.32;;;;;;;-10.15;96.55;91365.19;5033627;28;20154;-64
2021/12/22 03:15:19;;;;;;;7.88;4.60;;;;;;;-10.13;97.17;91362.44;5051386;28;20558;-64
2021/12/22 03:17:46;;;;;;;8.85;4.15;;;;;;;-10.03;97.70;91363.78;5051465;28;20162;-64
2021/12/22 03:20:14;;;;;;;3.80;2.90;;;;;;;-9.93;96.59;91360.97;5051325;28;20162;-64
2021/12/22 03:22:42;;;;;;;4.25;2.83;;;;;;;-9.84;95.82;91359.09;5051382;28;20115;-64
2021/12/22 03:25:14;;;;;;;5.70;2.95;;;;;;;-9.79;95.03;91365.28;5051414;28;20037;-63
2021/12/22 03:27:44;;;;;;;3.35;2.25;;;;;;;-9.80;94.61;91368.84;5051413;28;20594;-64
2021/12/22 03:30:11;;;;;;;3.42;2.38;;;;;;;-9.77;94.43;91368.53;5051120;28;20049;-64
2021/12/22 03:32:37;;;;;;;5.60;2.78;;;;;;;-9.75;94.69;91373.50;5050962;28;20549;-63
2021/12/22 03:35:03;;;;;;;1.88;1.73;;;;;;;-9.74;94.92;91372.50;5051054;28;20029;-63
2021/12/22 03:37:28;;;;;;;5.47;2.47;;;;;;;-9.80;94.73;91371.41;5050981;28;20036;-64
2021/12/22 03:39:54;;;;;;;3.20;1.98;;;;;;;-9.80;94.53;91368.06;5051032;28;20403;-64
2021/12/22 03:42:19;;;;;;;6.15;3.28;;;;;;;-9.79;94.37;91372.22;5050836;28;20029;-64
2021/12/22 03:44:45;;;;;;;4.88;3.00;;;;;;;-9.86;94.67;91353.31;5050723;28;20043;-65
2021/12/22 03:47:11;;;;;;;4.25;3.00;;;;;;;-9.78;93.88;91368.66;5050642;28;20037;-64
2021/12/22 03:49:37;;;;;;;5.97;2.75;;;;;;;-9.87;93.42;91367.16;5050854;28;20086;-64
2021/12/22 03:52:04;;;;;;;7.82;4.03;;;;;;;-9.92;94.06;91380.56;5050742;28;20098;-65
2021/12/22 03:54:29;;;;;;;12.85;4.10;;;;;;;-10.00;95.60;91376.28;5051158;28;20044;-65
2021/12/22 03:56:56;;;;;;;5.55;4.00;;;;;;;-10.08;95.95;91376.41;5050812;28;20029;-65
2021/12/22 03:59:23;;;;;;;6.53;3.55;;;;;;;-10.12;96.13;91364.84;5050862;28;20044;-64
2021/12/22 04:01:49;;;;;;;14.57;7.43;;;;;;;-10.10;96.70;91377.50;5050643;28;20126;-65
2021/12/22 04:04:17;;;;;;;8.55;4.22;;;;;;;-10.03;96.71;91368.94;5050985;28;20502;-65
2021/12/22 04:06:44;;;;;;;6.05;4.00;;;;;;;-10.08;96.09;91370.44;5050962;28;20076;-65
2021/12/22 04:09:10;;;;;;;6.45;3.05;;;;;;;-10.07;95.93;91372.84;5050713;28;20514;-65
2021/12/22 04:11:36;;;;;;;5.13;3.20;;;;;;;-10.07;94.80;91370.28;5050636;28;20120;-63
2021/12/22 04:14:02;;;;;;;10.15;4.95;;;;;;;-10.32;95.95;91346.56;5031241;28;20064;-67
2021/12/22 04:16:28;;;;;;;8.43;4.63;;;;;;;-10.35;96.70;91377.78;5028995;28;20046;-66
2021/12/22 04:18:53;;;;;;;10.70;5.35;;;;;;;-10.40;97.01;91377.50;5030461;28;20048;-68
2021/12/22 04:21:19;;;;;;;10.18;4.10;;;;;;;-10.45;96.84;91381.56;5030303;28;20157;-64
2021/12/22 04:23:44;;;;;;;9.57;4.20;;;;;;;-10.41;96.18;91375.13;5047635;28;21066;-65
2021/12/22 04:26:12;;;;;;;11.75;4.43;;;;;;;-10.35;95.66;91379.56;5034602;28;20033;-64
2021/12/22 04:28:40;;;;;;;7.25;3.90;;;;;;;-10.27;95.44;91393.13;5037694;28;20040;-63
2021/12/22 04:31:05;;;;;;;9.52;4.60;;;;;;;-10.20;94.49;91382.94;5038346;28;20060;-64
2021/12/22 04:33:31;;;;;;;12.90;5.20;;;;;;;-10.18;93.99;91400.75;5047356;28;20499;-63
2021/12/22 04:35:57;;;;;;;11.60;5.35;;;;;;;-10.20;93.33;91384.69;5050040;28;20033;-63
2021/12/22 04:38:23;;;;;;;12.50;4.78;;;;;;;-10.14;92.80;91384.78;5049442;28;20041;-64
2021/12/22 04:40:49;;;;;;;8.55;4.00;;;;;;;-10.06;92.30;91389.88;5049504;28;20048;-63
2021/12/22 04:43:15;;;;;;;12.73;5.40;;;;;;;-10.09;92.34;91377.38;5050103;28;20041;-64
2021/12/22 04:45:41;;;;;;;5.88;3.25;;;;;;;-9.97;92.10;91372.56;5052071;28;20037;-64
2021/12/22 04:48:07;;;;;;;7.22;4.00;;;;;;;-9.94;91.62;91374.00;5057126;28;20037;-64
2021/12/22 04:50:33;;;;;;;6.35;3.55;;;;;;;-9.88;91.05;91370.72;5050332;28;20111;-64
2021/12/22 04:53:06;;;;;;;11.05;4.60;;;;;;;-9.76;90.05;91377.03;5050022;28;20036;-64
2021/12/22 04:55:32;;;;;;;7.18;3.55;;;;;;;-9.77;89.91;91380.59;5049867;28;20044;-64
2021/12/22 04:57:59;;;;;;;12.38;6.07;;;;;;;-9.88;91.67;91375.88;5052799;28;20415;-64
2021/12/22 05:00:27;;;;;;;25.40;9.27;;;;;;;-9.94;92.43;91371.41;5053568;28;20045;-64
2021/12/22 05:02:54;;;;;;;17.65;8.27;;;;;;;-10.02;93.25;91375.69;5053278;28;20184;-64
2021/12/22 05:05:20;;;;;;;10.63;5.22;;;;;;;-9.79;93.56;91385.88;5053546;28;20045;-64
2021/12/22 05:07:47;;;;;;;16.27;7.22;;;;;;;-9.81;92.38;91361.31;5053475;28;20041;-65
2021/12/22 05:10:14;;;;;;;16.08;6.57;;;;;;;-9.60;90.85;91370.91;5053379;28;20048;-66
2021/12/22 05:12:40;;;;;;;18.65;6.20;;;;;;;-9.52;89.64;91381.91;5053416;28;20580;-67
2021/12/22 05:15:06;;;;;;;15.95;7.28;;;;;;;-9.41;87.81;91381.47;5053332;28;20503;-67
2021/12/22 05:18:00;;;;;;;7.53;5.07;;;;;;;-9.58;87.04;91367.19;5053300;28;20295;-64
2021/12/22 05:20:24;;;;;;;10.00;6.07;;;;;;;-9.42;86.89;91390.16;5052973;28;20056;-63
2021/12/22 05:22:50;;;;;;;9.07;4.45;;;;;;;-9.46;86.74;91390.72;5053080;28;20047;-64
2021/12/22 05:25:16;;;;;;;8.38;4.90;;;;;;;-9.46;87.22;91380.41;5052924;28;20465;-65
2021/12/22 05:27:42;;;;;;;10.98;4.93;;;;;;;-9.35;87.28;91392.81;5053382;28;20029;-65
2021/12/22 05:30:09;;;;;;;10.98;6.30;;;;;;;-9.39;87.50;91397.53;5053228;28;20041;-65
2021/12/22 05:32:36;;;;;;;15.50;7.78;;;;;;;-9.38;87.89;91398.31;5053028;28;20075;-65
2021/12/22 05:35:04;;;;;;;17.85;7.10;;;;;;;-9.38;88.17;91396.53;5053278;28;20036;-66
2021/12/22 05:37:30;;;;;;;14.80;7.18;;;;;;;-9.34;87.22;91398.75;5053151;28;20029;-65
2021/12/22 05:39:56;;;;;;;22.30;9.93;;;;;;;-9.42;87.44;91403.03;5053264;28;20044;-65
2021/12/22 05:42:26;;;;;;;51.50;16.13;;;;;;;-9.36;87.38;91406.66;5053283;28;20049;-65
2021/12/22 05:44:52;;;;;;;18.45;9.00;;;;;;;-9.42;87.23;91403.03;5053544;28;20572;-65
2021/12/22 05:47:18;;;;;;;30.30;11.15;;;;;;;-9.44;87.47;91407.56;5053923;28;20037;-65
2021/12/22 05:49:44;;;;;;;12.73;5.75;;;;;;;-9.31;86.91;91408.69;5053738;28;20569;-65
2021/12/22 05:52:10;;;;;;;12.43;6.65;;;;;;;-9.45;86.82;91393.09;5054110;28;20075;-65
2021/12/22 05:54:37;;;;;;;12.45;6.72;;;;;;;-9.28;86.42;91413.53;5054026;28;20036;-65
2021/12/22 05:57:03;;;;;;;16.33;7.88;;;;;;;-9.21;86.36;91409.22;5052994;28;20503;-65
2021/12/22 05:59:28;;;;;;;28.50;10.98;;;;;;;-9.11;85.97;91409.75;5034914;28;20094;-65
2021/12/22 06:01:54;;;;;;;15.55;6.80;;;;;;;-9.03;85.29;91406.28;5052428;28;20403;-65
2021/12/22 06:04:39;;;;;;;12.88;6.47;;;;;;;-8.95;84.75;91409.56;5052695;28;20041;-65
2021/12/22 06:07:05;;;;;;;16.02;6.15;;;;;;;-8.92;84.54;91401.47;5052614;28;20048;-65
2021/12/22 06:09:31;;;;;;;21.58;9.13;;;;;;;-8.83;84.31;91402.97;5052155;28;20494;-65
2021/12/22 06:11:58;;;;;;;37.45;15.50;;;;;;;-8.81;85.22;91413.88;5052742;28;20082;-65
2021/12/22 06:14:23;;;;;;;33.03;14.88;;;;;;;-8.84;85.20;91398.75;5052702;28;20049;-65
2021/12/22 06:16:49;;;;;;;47.00;15.70;;;;;;;-8.74;85.16;91413.16;5052123;28;20545;-65
2021/12/22 06:19:15;;;;;;;19.75;9.98;;;;;;;-8.62;84.52;91409.13;5052532;28;20073;-65
2021/12/22 06:21:41;;;;;;;20.25;9.02;;;;;;;-8.35;83.12;91416.13;5052521;28;20040;-65
2021/12/22 06:24:08;;;;;;;18.23;10.10;;;;;;;-8.10;81.67;91410.53;5052525;28;20049;-66
2021/12/22 06:26:34;;;;;;;28.92;15.55;;;;;;;-7.85;80.62;91416.91;5053558;28;20045;-66
2021/12/22 06:28:59;;;;;;;51.80;24.17;;;;;;;-7.86;81.30;91413.53;5052540;28;20094;-65
2021/12/22 06:31:25;;;;;;;83.38;33.78;;;;;;;-7.97;82.74;91408.06;5052140;28;20037;-65
2021/12/22 06:33:52;;;;;;;105.70;41.47;;;;;;;-8.15;82.79;91421.44;5052362;28;20041;-65
2021/12/22 06:36:18;;;;;;;65.68;27.42;;;;;;;-8.46;83.80;91422.56;5052066;28;20043;-65
2021/12/22 06:38:44;;;;;;;57.30;27.48;;;;;;;-9.14;84.93;91412.72;5052008;28;20086;-65
2021/12/22 06:41:09;;;;;;;52.15;23.08;;;;;;;-9.37;89.75;91407.66;5051930;28;20041;-65
2021/12/22 06:43:35;;;;;;;78.75;31.73;;;;;;;-9.59;92.66;91411.13;5051952;28;20038;-65
2021/12/22 06:46:00;;;;;;;78.53;31.90;;;;;;;-9.94;94.51;91426.25;5051912;28;20041;-64
2021/12/22 06:48:26;;;;;;;84.53;34.58;;;;;;;-9.94;97.68;91422.88;5051908;28;20064;-65
2021/12/22 06:50:52;;;;;;;62.17;24.92;;;;;;;-10.00;99.01;91422.63;5051654;28;20458;-65
2021/12/22 06:53:17;;;;;;;110.55;41.42;;;;;;;-9.93;100.00;91427.06;5051389;28;20029;-65
2021/12/22 06:55:43;;;;;;;92.72;37.15;;;;;;;-9.78;100.00;91423.56;5051623;28;20124;-65
2021/12/22 06:58:08;;;;;;;24.90;10.60;;;;;;;-9.53;100.00;91413.78;5051570;28;20064;-64
2021/12/22 07:00:36;;;;;;;11.80;6.75;;;;;;;-9.48;95.68;91414.03;5051494;28;20052;-65
2021/12/22 07:03:04;;;;;;;18.05;10.20;;;;;;;-9.43;93.16;91411.75;5051398;28;20072;-65
2021/12/22 07:05:31;;;;;;;43.70;16.58;;;;;;;-9.27;91.49;91413.34;5051498;28;20128;-65
2021/12/22 07:07:57;;;;;;;66.97;30.60;;;;;;;-9.33;90.16;91416.59;5051470;28;20095;-65
2021/12/22 07:10:22;;;;;;;64.63;25.23;;;;;;;-9.28;89.78;91418.66;5051421;28;20453;-65
2021/12/22 07:12:48;;;;;;;39.72;18.45;;;;;;;-9.39;89.84;91418.13;5051435;28;20036;-65
2021/12/22 07:15:16;;;;;;;40.20;19.02;;;;;;;-9.39;90.24;91412.97;5051422;28;20039;-65
2021/12/22 07:17:43;;;;;;;28.05;13.35;;;;;;;-9.20;90.43;91418.56;5051273;28;20123;-65
2021/12/22 07:20:10;;;;;;;29.67;13.05;;;;;;;-8.53;91.27;91413.16;5050488;28;20064;-64
2021/12/22 07:22:36;;;;;;;38.25;17.05;;;;;;;-4.60;78.32;91419.84;5051127;28;20553;-65
2021/12/22 07:25:03;;;;;;;41.90;22.95;;;;;;;-1.31;62.42;91423.81;5051188;28;20029;-65
2021/12/22 07:27:28;;;;;;;61.88;30.88;;;;;;;-0.12;54.53;91416.47;5051227;28;20064;-65
2021/12/22 07:29:54;;;;;;;70.22;34.05;;;;;;;1.27;51.76;91413.31;5051096;28;20502;-66
2021/12/22 07:32:19;;;;;;;78.32;36.10;;;;;;;0.76;50.35;91423.00;5051014;28;20029;-66
2021/12/22 07:35:00;;;;;;;73.00;37.00;;;;;;;-0.08;50.91;91430.66;5051453;28;20430;-66
2021/12/22 07:37:40;;;;;;;53.53;28.27;;;;;;;-3.29;57.34;91436.66;5032961;28;20041;-66
2021/12/22 07:40:10;;;;;;;33.13;19.98;;;;;;;-4.23;61.95;91444.28;5051067;28;20052;-65
2021/12/22 07:42:36;;;;;;;41.67;21.10;;;;;;;-4.22;62.73;91434.66;5050972;28;20049;-66
2021/12/22 07:45:01;;;;;;;48.17;19.35;;;;;;;-2.28;61.11;91438.81;5050903;28;20044;-65
2021/12/22 07:47:27;;;;;;;29.70;15.82;;;;;;;1.17;53.31;91445.41;5050882;28;20108;-66
2021/12/22 07:49:52;;;;;;;42.10;26.27;;;;;;;2.89;48.06;91436.19;5050890;28;20406;-65
2021/12/22 07:52:18;;;;;;;42.25;27.80;;;;;;;3.82;45.88;91436.59;5050829;28;20059;-66
2021/12/22 07:54:44;;;;;;;31.15;20.85;;;;;;;5.05;42.39;91441.25;5050923;28;20036;-65
2021/12/22 07:57:09;;;;;;;37.65;22.63;;;;;;;4.78;42.98;91438.03;5050781;28;20025;-66
2021/12/22 07:59:35;;;;;;;33.47;17.80;;;;;;;4.31;42.85;91440.78;5050774;28;20040;-66
2021/12/22 08:02:00;;;;;;;84.07;35.72;;;;;;;4.25;43.47;91447.06;5050620;28;20044;-66
2021/12/22 08:04:26;;;;;;;55.47;26.17;;;;;;;3.25;43.70;91442.53;5050833;28;20099;-66
2021/12/22 08:06:52;;;;;;;40.55;16.25;;;;;;;3.58;44.79;91441.44;5051161;28;20086;-65
2021/12/22 08:09:17;;;;;;;26.98;15.90;;;;;;;3.83;43.54;91446.09;5056064;28;20351;-65
2021/12/22 08:11:43;;;;;;;25.33;15.25;;;;;;;5.52;41.42;91440.16;5051261;28;20021;-65
2021/12/22 08:14:08;;;;;;;24.08;14.65;;;;;;;6.22;40.32;91449.06;5050758;28;20028;-65
2021/12/22 08:16:34;;;;;;;35.45;20.63;;;;;;;6.47;40.01;91450.03;5050605;28;20025;-66
2021/12/22 08:18:59;;;;;;;30.27;18.40;;;;;;;5.40;40.75;91458.13;5050632;28;20068;-65
2021/12/22 08:21:25;;;;;;;34.58;19.70;;;;;;;4.65;42.14;91449.06;5032713;28;20036;-65
2021/12/22 08:23:51;;;;;;;47.45;22.30;;;;;;;4.15;42.67;91448.63;5032777;28;20044;-65
2021/12/22 08:26:17;;;;;;;41.80;21.40;;;;;;;4.35;43.93;91455.00;5050616;28;20032;-65
2021/12/22 08:28:46;;;;;;;60.65;32.45;;;;;;;4.83;42.02;91461.75;5050544;28;20037;-65
2021/12/22 08:31:12;;;;;;;47.58;24.08;;;;;;;3.57;43.57;91458.28;5050702;28;20489;-65
2021/12/22 08:33:44;;;;;;;46.30;21.35;;;;;;;3.63;45.29;91467.03;5054518;28;20113;-65
2021/12/22 08:38:54;;;;;;;70.28;31.73;;;;;;;3.92;43.67;91465.59;5054519;28;20032;-66
2021/12/22 08:41:26;;;;;;;65.10;30.55;;;;;;;6.57;40.17;91455.28;5054459;28;20061;-66
2021/12/22 08:43:53;;;;;;;64.38;29.17;;;;;;;7.48;37.74;91462.69;5054300;28;20033;-66
2021/12/22 08:46:20;;;;;;;60.40;30.05;;;;;;;7.87;37.29;91459.19;5054137;28;20104;-66
2021/12/22 08:48:45;;;;;;;33.15;15.75;;;;;;;7.81;36.29;91455.00;5054070;28;20037;-66
2021/12/22 08:51:11;;;;;;;8.73;6.30;;;;;;;9.18;34.35;91444.75;5054004;28;20033;-66
2021/12/22 08:53:37;;;;;;;11.85;6.97;;;;;;;10.33;33.06;91440.53;5054060;28;20104;-66
2021/12/22 08:56:03;;;;;;;27.60;16.33;;;;;;;9.40;33.42;91444.94;5054033;28;20124;-66
2021/12/22 08:58:29;;;;;;;27.48;15.40;;;;;;;9.46;34.35;91435.81;5053912;28;20099;-66
2021/12/22 09:00:54;;;;;;;13.75;9.00;;;;;;;10.56;31.54;91427.34;5053634;28;20558;-67
2021/12/22 09:03:20;;;;;;;43.78;20.35;;;;;;;11.54;31.04;91436.47;5053863;28;20058;-66
2021/12/22 09:05:45;;;;;;;104.65;47.55;;;;;;;9.56;33.37;91427.72;5053833;28;20025;-66
2021/12/22 09:08:11;;;;;;;103.90;44.42;;;;;;;9.16;33.55;91429.13;5053775;28;20074;-66
2021/12/22 09:10:36;;;;;;;138.27;65.40;;;;;;;11.46;30.25;91428.38;5053626;28;20112;-66
2021/12/22 09:13:02;;;;;;;93.63;46.65;;;;;;;11.58;31.17;91416.09;5053735;28;20025;-66
2021/12/22 09:15:28;;;;;;;41.88;21.85;;;;;;;12.54;29.22;91420.16;5053539;28;20044;-64
2021/12/22 09:17:54;;;;;;;36.05;20.45;;;;;;;12.30;30.00;91425.84;5053486;28;20021;-66
2021/12/22 09:20:20;;;;;;;13.23;7.60;;;;;;;13.07;28.13;91424.56;5053450;28;20032;-66
2021/12/22 09:22:45;;;;;;;25.08;15.05;;;;;;;13.03;28.50;91420.94;5053512;28;20033;-65
2021/12/22 09:25:11;;;;;;;22.13;11.88;;;;;;;13.94;27.49;91426.22;5053448;28;20033;-66
2021/12/22 09:27:36;;;;;;;22.77;14.77;;;;;;;12.99;29.01;91425.34;5053280;28;20116;-65
2021/12/22 09:30:04;;;;;;;8.15;5.82;;;;;;;12.88;28.34;91414.13;5053394;28;20032;-65
2021/12/22 09:32:29;;;;;;;9.50;6.15;;;;;;;14.26;27.83;91422.25;5052832;28;20069;-65
2021/12/22 09:34:55;;;;;;;7.75;5.03;;;;;;;11.87;28.72;91413.06;5053291;28;20037;-65
2021/12/22 09:37:21;;;;;;;17.60;12.77;;;;;;;11.40;30.36;91420.53;5053349;28;20049;-65
2021/12/22 09:39:46;;;;;;;6.55;4.47;;;;;;;10.89;29.50;91414.69;5053221;28;20029;-65
2021/12/22 09:42:12;;;;;;;14.57;11.63;;;;;;;10.72;30.69;91424.06;5053307;28;20029;-65
2021/12/22 09:44:44;;;;;;;15.40;9.05;;;;;;;11.10;30.30;91410.53;5052205;28;20025;-65
2021/12/22 09:47:11;;;;;;;9.70;7.78;;;;;;;8.96;32.81;91416.91;5052968;28;20104;-66
2021/12/22 09:52:21;;;;;;;6.32;4.28;;;;;;;7.32;34.04;91426.81;5052893;28;20025;-65
2021/12/22 09:54:54;;;;;;;11.98;6.85;;;;;;;5.32;38.02;91427.78;5052895;28;20032;-65
2021/12/22 09:57:22;;;;;;;11.77;7.68;;;;;;;2.93;41.48;91425.97;5052941;28;20498;-65
2021/12/22 09:59:50;;;;;;;14.75;9.23;;;;;;;2.32;43.28;91428.00;5053497;28;20029;-65
2021/12/22 10:02:18;;;;;;;13.55;7.60;;;;;;;1.91;45.28;91424.94;5056390;28;20057;-64
2021/12/22 10:04:44;;;;;;;57.15;24.92;;;;;;;1.65;45.72;91415.16;5052987;28;20040;-65
2021/12/22 10:07:19;;;;;;;31.40;17.35;;;;;;;2.57;43.82;91425.66;5052671;28;20021;-65
2021/12/22 10:09:46;;;;;;;29.63;15.32;;;;;;;2.59;44.60;91426.19;5052531;28;20108;-65
2021/12/22 10:12:20;;;;;;;24.38;10.52;;;;;;;2.32;45.21;91425.38;5052448;28;20037;-65
2021/12/22 10:14:53;;;;;;;29.58;13.82;;;;;;;2.56;45.36;91420.66;5052428;28;20063;-66
2021/12/22 10:17:37;;;;;;;28.07;12.37;;;;;;;2.64;45.11;91412.31;5052465;28;20108;-66
2021/12/22 10:20:15;;;;;;;51.30;19.63;;;;;;;1.96;46.62;91419.72;5052298;28;20033;-66
2021/12/22 10:22:46;;;;;;;45.10;21.70;;;;;;;0.85;49.23;91422.38;5052446;28;20506;-65
2021/12/22 10:25:14;;;;;;;122.40;58.30;;;;;;;1.12;53.15;91419.13;5052364;28;20449;-65
2021/12/22 10:27:42;;;;;;;345.13;169.43;;;;;;;1.04;51.86;91403.81;5034167;28;20430;-65
2021/12/22 10:30:29;;;;;;;40.63;18.65;;;;;;;0.95;49.11;91411.28;5052170;28;20029;-65
2021/12/22 10:33:16;;;;;;;31.40;14.23;;;;;;;0.93;49.69;91412.53;5052009;28;20025;-66
2021/12/22 10:35:53;;;;;;;14.45;8.20;;;;;;;2.59;46.34;91405.19;5052077;28;20028;-66
2021/12/22 10:38:21;;;;;;;13.30;8.15;;;;;;;3.82;43.14;91393.72;5052094;28;20399;-66
2021/12/22 10:41:10;;;;;;;26.63;13.88;;;;;;;4.32;43.05;91397.59;5034148;28;20032;-66
2021/12/22 10:43:45;;;;;;;22.48;15.32;;;;;;;5.02;41.14;91396.13;5051900;28;20029;-66
2021/12/22 10:46:16;;;;;;;28.85;19.55;;;;;;;6.03;39.13;91387.31;5051727;28;20036;-66
2021/12/22 10:51:32;;;;;;;18.92;12.38;;;;;;;7.26;37.61;91384.78;5051706;28;20035;-66
2021/12/22 10:54:00;;;;;;;26.98;17.70;;;;;;;7.84;37.08;91375.00;5051762;28;20025;-65
2021/12/22 10:56:35;;;;;;;41.67;24.25;;;;;;;8.78;35.38;91377.09;5051553;28;20039;-66
2021/12/22 10:59:19;;;;;;;43.97;26.38;;;;;;;11.66;32.73;91372.72;5051667;28;20052;-66
2021/12/22 11:01:54;;;;;;;65.72;38.60;;;;;;;10.53;33.46;91374.72;5051205;28;20045;-65
2021/12/22 11:04:29;;;;;;;34.03;16.02;;;;;;;11.38;31.89;91373.97;5051508;28;20442;-65
2021/12/22 11:07:04;;;;;;;24.83;12.50;;;;;;;10.01;32.91;91366.13;5051437;28;20119;-65
2021/12/22 11:09:34;;;;;;;10.52;6.45;;;;;;;8.36;33.93;91362.78;5051420;28;20025;-65
2021/12/22 11:12:00;;;;;;;13.90;6.53;;;;;;;7.95;35.62;91363.22;5051230;28;20029;-65
2021/12/22 11:14:26;;;;;;;10.70;6.63;;;;;;;6.57;36.33;91360.13;5051300;28;20040;-66
2021/12/22 11:17:11;;;;;;;8.15;5.30;;;;;;;6.98;36.74;91367.81;5051231;28;20108;-65
2021/12/22 11:19:49;;;;;;;9.55;4.55;;;;;;;6.24;38.58;91357.13;5051315;28;20055;-66
2021/12/22 11:22:16;;;;;;;16.88;8.65;;;;;;;5.64;39.29;91358.09;5051066;28;20028;-66
2021/12/22 11:24:47;;;;;;;16.35;7.72;;;;;;;6.00;39.18;91361.47;5051497;28;20103;-66
2021/12/22 11:27:17;;;;;;;7.30;5.22;;;;;;;6.27;37.94;91359.22;5051059;28;20037;-65
2021/12/22 11:29:55;;;;;;;8.05;4.70;;;;;;;5.93;39.55;91348.53;5051369;28;20044;-66
2021/12/22 11:32:23;;;;;;;9.07;4.00;;;;;;;5.09;39.53;91352.63;5051122;28;20060;-66
2021/12/22 11:34:52;;;;;;;8.55;6.00;;;;;;;4.93;39.60;91358.97;5051015;28;20058;-66
2021/12/22 11:37:19;;;;;;;24.50;10.27;;;;;;;5.83;39.07;91355.66;5050991;28;20056;-66
2021/12/22 11:39:46;;;;;;;6.47;4.28;;;;;;;7.04;36.12;91348.16;5050700;28;20028;-66
2021/12/22 11:42:13;;;;;;;20.48;11.73;;;;;;;7.67;36.70;91346.28;5050512;28;20029;-67